createdAt,value
2019-03-18T00:02:24.263Z,97.00
2019-03-18T00:05:28.137Z,97.50
2019-03-18T00:08:31.970Z,98.10
2019-03-18T00:11:35.886Z,98.10
2019-03-18T00:14:39.883Z,97.40
2019-03-18T00:17:43.726Z,96.90
2019-03-18T00:20:47.849Z,96.60
2019-03-18T00:23:51.676Z,96.40
2019-03-18T00:26:55.573Z,96.50
2019-03-18T00:29:59.492Z,96.70
2019-03-18T00:33:03.422Z,97.20
2019-03-18T00:36:07.369Z,97.60
2019-03-18T00:39:11.244Z,97.60
2019-03-18T00:42:15.142Z,97.60
2019-03-18T00:45:19.032Z,97.50
2019-03-18T00:48:22.884Z,97.40
2019-03-18T00:51:26.771Z,97.60
2019-03-18T00:54:30.631Z,97.80
2019-03-18T00:57:34.483Z,97.60
2019-03-18T01:00:38.420Z,97.60
2019-03-18T01:03:42.300Z,97.30
2019-03-18T01:06:46.131Z,97.80
2019-03-18T01:09:50.026Z,97.60
2019-03-18T01:12:53.895Z,97.60
2019-03-18T01:15:57.724Z,97.40
2019-03-18T01:19:01.581Z,97.30
2019-03-18T01:22:05.406Z,97.70
2019-03-18T01:25:11.149Z,98.10
2019-03-18T01:28:15.098Z,98.40
2019-03-18T01:31:18.978Z,98.90
2019-03-18T01:34:22.842Z,99.40
2019-03-18T01:37:26.661Z,99.90
2019-03-18T01:40:30.561Z,99.90
2019-03-18T01:43:34.392Z,99.90
2019-03-18T01:46:38.294Z,99.90
2019-03-18T01:49:42.119Z,99.90
2019-03-18T01:52:46.093Z,99.90
2019-03-18T01:55:49.931Z,99.90
2019-03-18T01:58:53.819Z,99.90
2019-03-18T02:01:57.751Z,99.90
2019-03-18T02:05:01.655Z,99.90
2019-03-18T02:08:05.591Z,99.90
2019-03-18T02:11:09.541Z,99.90
2019-03-18T02:14:13.422Z,99.90
2019-03-18T02:17:17.265Z,99.90
2019-03-18T02:20:21.137Z,99.90
2019-03-18T02:23:25.200Z,99.90
2019-03-18T02:26:29.087Z,99.90
2019-03-18T02:29:32.941Z,99.90
2019-03-18T02:32:36.804Z,99.90
2019-03-18T02:35:40.693Z,99.90
2019-03-18T02:38:44.571Z,99.90
2019-03-18T02:41:48.413Z,99.90
2019-03-18T02:44:52.281Z,99.90
2019-03-18T02:47:56.181Z,99.90
2019-03-18T02:51:00.206Z,99.90
2019-03-18T02:54:04.127Z,99.90
2019-03-18T02:57:07.986Z,99.90
2019-03-18T03:00:16.404Z,99.90
2019-03-18T03:03:20.256Z,99.90
2019-03-18T03:06:24.102Z,99.90
2019-03-18T03:09:27.981Z,99.90
2019-03-18T03:12:31.877Z,99.90
2019-03-18T03:15:35.731Z,99.90
2019-03-18T03:18:39.610Z,99.90
2019-03-18T03:21:43.505Z,99.90
2019-03-18T03:24:47.386Z,99.90
2019-03-18T03:27:51.231Z,99.90
2019-03-18T03:30:55.167Z,99.90
2019-03-18T03:33:59.007Z,99.90
2019-03-18T03:37:02.839Z,99.90
2019-03-18T03:40:11.006Z,99.90
2019-03-18T03:43:14.840Z,99.90
2019-03-18T03:46:18.804Z,99.90
2019-03-18T03:49:22.651Z,99.90
2019-03-18T03:52:26.894Z,99.90
2019-03-18T03:55:30.841Z,99.90
2019-03-18T03:58:34.726Z,99.90
2019-03-18T04:01:38.554Z,99.90
2019-03-18T04:04:42.431Z,99.90
2019-03-18T04:07:46.331Z,99.90
2019-03-18T04:10:50.171Z,99.90
2019-03-18T04:13:54.046Z,99.90
2019-03-18T04:17:02.440Z,99.90
2019-03-18T04:20:03.854Z,99.90
2019-03-18T04:23:07.683Z,99.90
2019-03-18T04:26:11.564Z,99.90
2019-03-18T04:29:15.480Z,99.90
2019-03-18T04:32:19.320Z,99.90
2019-03-18T04:35:23.231Z,99.90
2019-03-18T04:38:27.174Z,99.90
2019-03-18T04:41:31.056Z,99.90
2019-03-18T04:44:35.052Z,99.90
2019-03-18T04:47:38.925Z,99.90
2019-03-18T04:50:42.740Z,99.90
2019-03-18T04:53:46.630Z,99.90
2019-03-18T04:56:50.521Z,99.90
2019-03-18T04:59:54.392Z,99.90
2019-03-18T05:02:58.232Z,99.90
2019-03-18T05:06:02.161Z,99.90
2019-03-18T05:09:06.821Z,99.90
2019-03-18T05:12:10.706Z,99.90
2019-03-18T05:15:14.551Z,99.90
2019-03-18T05:18:18.424Z,99.90
2019-03-18T05:21:22.243Z,99.90
2019-03-18T05:24:26.154Z,99.90
2019-03-18T05:27:29.971Z,99.90
2019-03-18T05:30:33.898Z,99.90
2019-03-18T05:33:38.691Z,99.90
2019-03-18T05:36:42.573Z,99.90
2019-03-18T05:39:46.400Z,99.90
2019-03-18T05:42:50.303Z,99.90
2019-03-18T05:45:54.156Z,99.90
2019-03-18T05:48:58.744Z,99.90
2019-03-18T05:52:02.617Z,99.90
2019-03-18T05:55:07.598Z,99.90
2019-03-18T05:58:11.437Z,99.90
2019-03-18T06:01:15.310Z,99.90
2019-03-18T06:04:19.151Z,99.90
2019-03-18T06:07:23.537Z,99.90
2019-03-18T06:10:27.408Z,99.90
2019-03-18T06:13:31.296Z,99.90
2019-03-18T06:16:35.112Z,99.90
2019-03-18T06:19:38.992Z,99.90
2019-03-18T06:22:42.854Z,99.90
2019-03-18T06:25:46.806Z,99.90
2019-03-18T06:28:50.654Z,99.90
2019-03-18T06:31:54.542Z,99.90
2019-03-18T06:34:58.392Z,99.90
2019-03-18T06:38:02.284Z,99.90
2019-03-18T06:41:06.143Z,99.90
2019-03-18T06:44:10.070Z,99.90
2019-03-18T06:47:13.926Z,99.90
2019-03-18T06:50:17.861Z,99.90
2019-03-18T06:53:21.682Z,99.90
2019-03-18T06:56:25.592Z,99.90
2019-03-18T06:59:29.428Z,99.90
2019-03-18T07:02:33.306Z,99.90
2019-03-18T07:05:37.121Z,99.90
2019-03-18T07:08:41.026Z,99.90
2019-03-18T07:11:44.844Z,99.90
2019-03-18T07:14:48.721Z,99.90
2019-03-18T07:17:52.570Z,99.90
2019-03-18T07:20:56.476Z,99.90
2019-03-18T07:24:00.331Z,99.90
2019-03-18T07:27:04.195Z,99.90
2019-03-18T07:30:10.395Z,99.90
2019-03-18T07:33:14.293Z,99.90
2019-03-18T07:36:18.089Z,99.90
2019-03-18T07:39:22.014Z,99.90
2019-03-18T07:42:26.055Z,99.90
2019-03-18T07:45:29.923Z,99.90
2019-03-18T07:48:33.749Z,99.90
2019-03-18T07:51:37.648Z,99.90
2019-03-18T07:54:41.470Z,99.90
2019-03-18T07:57:45.336Z,99.40
2019-03-18T08:00:49.315Z,99.90
2019-03-18T08:03:53.196Z,99.90
2019-03-18T08:06:57.106Z,99.60
2019-03-18T08:10:00.918Z,99.60
2019-03-18T08:13:04.782Z,99.90
2019-03-18T08:16:08.623Z,99.90
2019-03-18T08:19:12.505Z,99.40
2019-03-18T08:22:16.425Z,99.60
2019-03-18T08:25:20.261Z,99.90
2019-03-18T08:28:24.116Z,99.60
2019-03-18T08:31:28.044Z,99.90
2019-03-18T08:34:31.917Z,99.90
2019-03-18T08:37:35.809Z,99.90
2019-03-18T08:40:39.672Z,99.90
2019-03-18T08:43:43.548Z,99.90
2019-03-18T08:46:47.453Z,99.50
2019-03-18T08:49:51.292Z,99.90
2019-03-18T08:52:55.208Z,99.90
2019-03-18T08:55:59.049Z,99.90
2019-03-18T08:59:02.903Z,99.90
2019-03-18T09:02:06.861Z,99.70
2019-03-18T09:05:10.762Z,99.60
2019-03-18T09:08:14.680Z,99.90
2019-03-18T09:11:18.496Z,98.80
2019-03-18T09:14:22.375Z,98.80
2019-03-18T09:17:29.147Z,98.20
2019-03-18T09:20:32.960Z,98.80
2019-03-18T09:23:36.902Z,99.50
2019-03-18T09:26:40.820Z,99.20
2019-03-18T09:29:44.883Z,98.80
2019-03-18T09:32:48.761Z,97.70
2019-03-18T09:35:52.582Z,98.30
2019-03-18T09:38:56.469Z,97.60
2019-03-18T09:42:00.642Z,97.20
2019-03-18T09:45:09.975Z,97.40
2019-03-18T09:48:13.821Z,97.10
2019-03-18T09:51:17.708Z,97.60
2019-03-18T09:54:21.545Z,98.40
2019-03-18T09:57:26.635Z,98.10
2019-03-18T10:00:30.858Z,98.30
2019-03-18T10:03:34.749Z,98.60
2019-03-18T10:06:38.564Z,98.10
2019-03-18T10:09:42.476Z,98.10
2019-03-18T10:12:46.327Z,98.40
2019-03-18T10:15:50.191Z,98.80
2019-03-18T10:18:54.042Z,99.60
2019-03-18T10:21:57.973Z,98.70
2019-03-18T10:25:04.126Z,98.70
2019-03-18T10:28:07.283Z,98.90
2019-03-18T10:31:11.153Z,98.10
2019-03-18T10:34:15.027Z,98.00
2019-03-18T10:37:19.746Z,98.20
2019-03-18T10:40:23.647Z,97.80
2019-03-18T10:43:27.503Z,97.80
2019-03-18T10:46:31.396Z,98.30
2019-03-18T10:49:45.681Z,98.80
2019-03-18T10:52:40.748Z,99.10
2019-03-18T10:55:44.550Z,99.50
2019-03-18T10:58:48.443Z,99.70
2019-03-18T11:01:52.311Z,99.20
2019-03-18T11:04:56.177Z,99.60
2019-03-18T11:08:00.053Z,99.60
2019-03-18T11:11:03.961Z,98.90
2019-03-18T11:14:07.816Z,99.00
2019-03-18T11:17:11.701Z,98.60
2019-03-18T11:20:16.487Z,99.20
2019-03-18T11:23:20.374Z,99.10
2019-03-18T11:26:24.272Z,98.80
2019-03-18T11:29:28.471Z,99.20
2019-03-18T11:32:32.387Z,98.80
2019-03-18T11:35:36.233Z,99.20
2019-03-18T11:38:40.080Z,99.50
2019-03-18T11:41:43.940Z,98.90
2019-03-18T11:44:47.841Z,98.60
2019-03-18T11:47:51.708Z,97.80
2019-03-18T11:50:55.649Z,98.20
2019-03-18T11:53:59.562Z,98.30
2019-03-18T11:57:03.383Z,97.90
2019-03-18T12:00:10.487Z,97.60
2019-03-18T12:03:14.346Z,97.60
2019-03-18T12:06:18.454Z,98.40
2019-03-18T12:09:22.346Z,97.90
2019-03-18T12:12:29.160Z,96.70
2019-03-18T12:15:33.018Z,97.10
2019-03-18T12:18:36.904Z,96.90
2019-03-18T12:21:40.784Z,96.50
2019-03-18T12:24:44.740Z,96.80
2019-03-18T12:27:48.591Z,96.80
2019-03-18T12:30:52.480Z,96.30
2019-03-18T12:33:57.432Z,95.10
2019-03-18T12:37:02.115Z,94.50
2019-03-18T12:40:13.610Z,94.00
2019-03-18T12:43:17.493Z,93.40
2019-03-18T12:46:21.420Z,94.20
2019-03-18T12:49:25.272Z,93.60
2019-03-18T12:52:29.152Z,93.20
2019-03-18T12:55:33.323Z,93.90
2019-03-18T12:58:37.321Z,93.10
2019-03-18T13:01:41.200Z,93.70
2019-03-18T13:04:45.076Z,92.90
2019-03-18T13:07:48.988Z,92.90
2019-03-18T13:10:52.862Z,93.30
2019-03-18T13:13:56.747Z,92.50
2019-03-18T13:17:00.859Z,92.80
2019-03-18T13:20:08.013Z,92.10
2019-03-18T13:23:11.963Z,91.80
2019-03-18T13:26:15.819Z,92.00
2019-03-18T13:29:19.716Z,92.10
2019-03-18T13:32:24.108Z,90.90
2019-03-18T13:35:28.124Z,91.90
2019-03-18T13:38:32.070Z,91.10
2019-03-18T13:41:36.053Z,90.60
2019-03-18T13:44:39.993Z,91.30
2019-03-18T13:47:43.890Z,91.00
2019-03-18T13:50:47.866Z,90.70
2019-03-18T13:53:51.820Z,90.20
2019-03-18T13:56:55.684Z,90.70
2019-03-18T13:59:59.688Z,90.80
2019-03-18T14:03:03.505Z,90.50
2019-03-18T14:06:07.473Z,90.10
2019-03-18T14:09:11.310Z,90.40
2019-03-18T14:12:15.186Z,90.80
2019-03-18T14:15:20.269Z,90.90
2019-03-18T14:18:24.151Z,89.80
2019-03-18T14:21:33.198Z,90.40
2019-03-18T14:24:33.655Z,88.90
2019-03-18T14:27:37.522Z,87.50
2019-03-18T14:30:41.438Z,88.80
2019-03-18T14:33:45.288Z,90.00
2019-03-18T14:36:49.155Z,87.40
2019-03-18T14:39:52.981Z,87.10
2019-03-18T14:42:56.897Z,86.60
2019-03-18T14:46:00.877Z,86.70
2019-03-18T14:49:04.816Z,86.50
2019-03-18T14:52:08.696Z,84.30
2019-03-18T14:55:14.937Z,87.00
2019-03-18T14:58:18.848Z,85.00
2019-03-18T15:01:22.794Z,85.40
2019-03-18T15:04:26.683Z,84.80
2019-03-18T15:07:30.639Z,86.50
2019-03-18T15:10:34.478Z,87.20
2019-03-18T15:13:38.391Z,87.20
2019-03-18T15:16:42.234Z,88.20
2019-03-18T15:19:46.138Z,89.10
2019-03-18T15:22:50.281Z,88.00
2019-03-18T15:25:54.194Z,88.30
2019-03-18T15:28:58.418Z,89.10
2019-03-18T15:32:02.338Z,89.50
2019-03-18T15:35:07.654Z,88.20
2019-03-18T15:38:11.563Z,88.40
2019-03-18T15:41:15.453Z,89.70
2019-03-18T15:44:19.345Z,88.30
2019-03-18T15:47:23.880Z,90.30
2019-03-18T15:50:28.208Z,88.10
2019-03-18T15:53:32.107Z,89.10
2019-03-18T15:56:35.978Z,89.30
2019-03-18T15:59:40.757Z,88.20
2019-03-18T16:02:44.829Z,88.20
2019-03-18T16:05:48.679Z,88.40
2019-03-18T16:08:52.675Z,88.40
2019-03-18T16:11:56.513Z,89.40
2019-03-18T16:15:00.431Z,87.80
2019-03-18T16:18:04.379Z,89.00
2019-03-18T16:21:08.238Z,87.80
2019-03-18T16:24:13.647Z,88.80
2019-03-18T16:27:17.533Z,89.20
2019-03-18T16:30:22.373Z,89.20
2019-03-18T16:33:26.264Z,89.00
2019-03-18T16:36:30.329Z,88.10
2019-03-18T16:39:34.168Z,88.80
2019-03-18T16:42:38.053Z,89.70
2019-03-18T16:45:42.045Z,88.90
2019-03-18T16:48:45.913Z,89.20
2019-03-18T16:51:49.813Z,89.70
2019-03-18T16:54:53.778Z,89.50
2019-03-18T16:57:57.835Z,89.70
2019-03-18T17:01:01.664Z,90.10
2019-03-18T17:04:05.653Z,90.20
2019-03-18T17:07:09.587Z,90.20
2019-03-18T17:10:14.906Z,90.60
2019-03-18T17:13:18.856Z,90.30
2019-03-18T17:16:22.809Z,90.60
2019-03-18T17:19:26.708Z,90.20
2019-03-18T17:22:30.553Z,90.20
2019-03-18T17:25:34.961Z,90.50
2019-03-18T17:28:38.875Z,91.20
2019-03-18T17:31:42.715Z,90.80
2019-03-18T17:34:46.599Z,91.50
2019-03-18T17:37:50.473Z,90.90
2019-03-18T17:40:54.376Z,91.10
2019-03-18T17:43:58.289Z,91.40
2019-03-18T17:47:02.123Z,91.20
2019-03-18T17:50:08.952Z,91.10
2019-03-18T17:53:14.237Z,91.20
2019-03-18T17:56:29.639Z,91.70
2019-03-18T17:59:23.784Z,91.80
2019-03-18T18:02:29.124Z,91.50
2019-03-18T18:05:33.012Z,91.50
2019-03-18T18:08:36.897Z,92.00
2019-03-18T18:11:43.067Z,91.30
2019-03-18T18:14:46.270Z,91.50
2019-03-18T18:17:50.309Z,91.30
2019-03-18T18:20:54.172Z,91.70
2019-03-18T18:23:58.037Z,91.50
2019-03-18T18:27:01.949Z,91.20
2019-03-18T18:30:11.494Z,92.20
2019-03-18T18:33:16.932Z,91.40
2019-03-18T18:36:20.847Z,91.60
2019-03-18T18:39:24.804Z,92.40
2019-03-18T18:42:31.189Z,93.50
2019-03-18T18:45:35.192Z,93.30
2019-03-18T18:48:39.081Z,92.70
2019-03-18T18:51:42.954Z,92.90
2019-03-18T18:54:46.981Z,93.10
2019-03-18T18:57:50.991Z,93.70
2019-03-18T19:00:54.899Z,93.20
2019-03-18T19:03:59.003Z,93.00
2019-03-18T19:07:02.879Z,93.00
2019-03-18T19:10:09.512Z,94.40
2019-03-18T19:13:17.612Z,94.90
2019-03-18T19:16:20.859Z,93.80
2019-03-18T19:19:24.763Z,95.00
2019-03-18T19:22:28.663Z,95.50
2019-03-18T19:25:32.494Z,95.30
2019-03-18T19:28:36.747Z,96.40
2019-03-18T19:31:40.655Z,95.30
2019-03-18T19:34:44.685Z,94.90
2019-03-18T19:37:48.533Z,95.60
2019-03-18T19:40:52.445Z,95.90
2019-03-18T19:43:56.307Z,96.20
2019-03-18T19:47:00.203Z,96.40
2019-03-18T19:50:05.172Z,97.20
2019-03-18T19:53:12.328Z,96.20
2019-03-18T19:56:16.314Z,96.30
2019-03-18T19:59:22.609Z,96.70
2019-03-18T20:02:26.711Z,96.70
2019-03-18T20:05:30.629Z,94.90
2019-03-18T20:08:34.456Z,97.90
2019-03-18T20:11:38.592Z,97.40
2019-03-18T20:14:42.480Z,97.20
2019-03-18T20:17:46.503Z,96.40
2019-03-18T20:20:50.611Z,95.20
2019-03-18T20:24:00.674Z,95.60
2019-03-18T20:27:00.847Z,96.30
2019-03-18T20:30:08.769Z,96.90
2019-03-18T20:33:12.594Z,96.00
2019-03-18T20:36:16.527Z,96.90
2019-03-18T20:39:20.357Z,96.40
2019-03-18T20:42:24.739Z,95.80
2019-03-18T20:45:28.594Z,95.70
2019-03-18T20:48:32.517Z,95.40
2019-03-18T20:51:36.368Z,94.40
2019-03-18T20:54:41.596Z,94.70
2019-03-18T20:57:45.785Z,95.50
2019-03-18T21:00:49.779Z,95.30
2019-03-18T21:03:53.612Z,95.20
2019-03-18T21:06:59.676Z,94.70
2019-03-18T21:10:03.484Z,95.90
2019-03-18T21:13:07.463Z,95.70
2019-03-18T21:16:11.392Z,95.40
2019-03-18T21:19:16.183Z,96.40
2019-03-18T21:22:20.153Z,95.90
2019-03-18T21:25:24.169Z,96.30
2019-03-18T21:28:27.981Z,95.70
2019-03-18T21:31:31.860Z,95.30
2019-03-18T21:34:35.667Z,96.40
2019-03-18T21:37:39.634Z,96.80
2019-03-18T21:40:43.595Z,96.40
2019-03-18T21:43:47.513Z,97.00
2019-03-18T21:46:51.343Z,96.60
2019-03-18T21:49:55.263Z,96.70
2019-03-18T21:52:59.136Z,96.40
2019-03-18T21:56:03.037Z,97.00
2019-03-18T21:59:06.843Z,97.00
2019-03-18T22:02:10.738Z,97.10
2019-03-18T22:05:15.093Z,97.20
2019-03-18T22:08:18.987Z,97.30
2019-03-18T22:11:22.851Z,97.20
2019-03-18T22:14:26.753Z,97.20
2019-03-18T22:17:30.629Z,97.60
2019-03-18T22:20:34.518Z,98.10
2019-03-18T22:23:38.362Z,98.60
2019-03-18T22:26:42.238Z,98.10
2019-03-18T22:29:46.068Z,98.20
2019-03-18T22:32:49.979Z,98.80
2019-03-18T22:35:53.837Z,98.20
2019-03-18T22:38:57.755Z,98.70
2019-03-18T22:42:01.801Z,98.80
2019-03-18T22:45:08.749Z,99.10
2019-03-18T22:48:12.565Z,98.70
2019-03-18T22:51:16.453Z,99.00
2019-03-18T22:54:20.304Z,99.70
2019-03-18T22:57:24.687Z,99.40
2019-03-18T23:00:33.233Z,99.40
2019-03-18T23:03:37.159Z,99.50
2019-03-18T23:06:40.998Z,99.90
2019-03-18T23:09:45.281Z,99.90
2019-03-18T23:12:49.138Z,99.90
2019-03-18T23:15:53.069Z,99.90
2019-03-18T23:18:56.920Z,99.90
2019-03-18T23:22:00.812Z,99.90
2019-03-18T23:25:07.462Z,99.90
2019-03-18T23:28:12.016Z,99.90
2019-03-18T23:31:15.866Z,99.90
2019-03-18T23:34:19.869Z,99.90
2019-03-18T23:37:24.377Z,99.90
2019-03-18T23:40:28.264Z,99.90
2019-03-18T23:43:32.117Z,99.90
2019-03-18T23:46:36.038Z,99.90
2019-03-18T23:49:39.873Z,99.90
2019-03-18T23:52:43.780Z,99.90
2019-03-18T23:55:47.598Z,99.90
2019-03-18T23:58:51.503Z,99.90
